sensor_id;sensor_type;location;lat;lon;timestamp;pressure;altitude;pressure_sealevel;temperature;humidity
72525;BME280;60547;48.502;8.996;2023-03-18T00:00:00;97494.41;;;8.13;76.10
72525;BME280;60547;48.502;8.996;2023-03-18T00:02:26;97490.22;;;8.04;75.98
72525;BME280;60547;48.502;8.996;2023-03-18T00:04:51;97504.50;;;8.03;76.45
72525;BME280;60547;48.502;8.996;2023-03-18T00:07:17;97500.53;;;8.04;76.15
72525;BME280;60547;48.502;8.996;2023-03-18T00:09:43;97490.22;;;8.04;76.33
72525;BME280;60547;48.502;8.996;2023-03-18T00:12:09;97501.31;;;8.04;76.17
72525;BME280;60547;48.502;8.996;2023-03-18T00:14:36;97500.97;;;8.02;76.15
72525;BME280;60547;48.502;8.996;2023-03-18T00:17:02;97505.38;;;8.00;76.45
72525;BME280;60547;48.502;8.996;2023-03-18T00:19:28;97509.34;;;7.99;76.48
72525;BME280;60547;48.502;8.996;2023-03-18T00:21:53;97513.75;;;7.96;76.96
72525;BME280;60547;48.502;8.996;2023-03-18T00:24:20;97516.25;;;7.91;77.41
72525;BME280;60547;48.502;8.996;2023-03-18T00:26:46;97504.91;;;7.85;76.84
72525;BME280;60547;48.502;8.996;2023-03-18T00:29:11;97508.03;;;7.87;77.04
72525;BME280;60547;48.502;8.996;2023-03-18T00:31:37;97501.78;;;7.83;77.45
72525;BME280;60547;48.502;8.996;2023-03-18T00:34:03;97505.44;;;7.96;77.02
72525;BME280;60547;48.502;8.996;2023-03-18T00:36:29;97509.22;;;7.86;77.27
72525;BME280;60547;48.502;8.996;2023-03-18T00:38:56;97515.97;;;7.85;77.45
72525;BME280;60547;48.502;8.996;2023-03-18T00:41:26;97512.16;;;7.79;77.40
72525;BME280;60547;48.502;8.996;2023-03-18T00:43:53;97520.81;;;7.81;77.44
72525;BME280;60547;48.502;8.996;2023-03-18T00:48:52;97524.78;;;7.80;77.23
72525;BME280;60547;48.502;8.996;2023-03-18T00:51:18;97533.03;;;7.84;77.50
72525;BME280;60547;48.502;8.996;2023-03-18T00:53:48;97536.28;;;7.78;77.67
72525;BME280;60547;48.502;8.996;2023-03-18T00:56:15;97532.03;;;7.74;77.76
72525;BME280;60547;48.502;8.996;2023-03-18T00:58:42;97530.75;;;7.78;77.73
72525;BME280;60547;48.502;8.996;2023-03-18T01:01:08;97534.72;;;7.77;77.71
72525;BME280;60547;48.502;8.996;2023-03-18T01:03:34;97538.44;;;7.71;77.82
72525;BME280;60547;48.502;8.996;2023-03-18T01:06:00;97534.53;;;7.68;77.62
72525;BME280;60547;48.502;8.996;2023-03-18T01:08:27;97525.78;;;7.70;77.65
72525;BME280;60547;48.502;8.996;2023-03-18T01:10:55;97530.13;;;7.71;77.40
72525;BME280;60547;48.502;8.996;2023-03-18T01:13:21;97530.13;;;7.71;78.04
72525;BME280;60547;48.502;8.996;2023-03-18T01:15:49;97541.56;;;7.73;78.27
72525;BME280;60547;48.502;8.996;2023-03-18T01:18:15;97539.28;;;7.68;78.14
72525;BME280;60547;48.502;8.996;2023-03-18T01:20:42;97529.84;;;7.65;77.73
72525;BME280;60547;48.502;8.996;2023-03-18T01:23:09;97527.41;;;7.67;77.47
72525;BME280;60547;48.502;8.996;2023-03-18T01:25:35;97523.50;;;7.65;77.83
72525;BME280;60547;48.502;8.996;2023-03-18T01:28:02;97532.19;;;7.67;78.35
72525;BME280;60547;48.502;8.996;2023-03-18T01:30:28;97530.63;;;7.66;77.55
72525;BME280;60547;48.502;8.996;2023-03-18T01:32:55;97519.81;;;7.71;78.55
72525;BME280;60547;48.502;8.996;2023-03-18T01:35:20;97509.38;;;7.59;78.28
72525;BME280;60547;48.502;8.996;2023-03-18T01:37:46;97515.06;;;7.52;77.93
72525;BME280;60547;48.502;8.996;2023-03-18T01:40:12;97531.97;;;7.58;77.50
72525;BME280;60547;48.502;8.996;2023-03-18T01:42:38;97525.22;;;7.59;78.35
72525;BME280;60547;48.502;8.996;2023-03-18T01:45:13;97532.97;;;7.67;77.86
72525;BME280;60547;48.502;8.996;2023-03-18T01:47:42;97521.97;;;7.64;78.11
72525;BME280;60547;48.502;8.996;2023-03-18T01:50:14;97524.72;;;7.64;78.18
72525;BME280;60547;48.502;8.996;2023-03-18T01:52:41;97526.94;;;7.53;78.46
72525;BME280;60547;48.502;8.996;2023-03-18T01:55:17;97519.13;;;7.48;77.67
72525;BME280;60547;48.502;8.996;2023-03-18T01:57:44;97516.78;;;7.46;77.53
72525;BME280;60547;48.502;8.996;2023-03-18T02:00:11;97518.75;;;7.45;77.43
72525;BME280;60547;48.502;8.996;2023-03-18T02:02:38;97530.53;;;7.50;78.00
72525;BME280;60547;48.502;8.996;2023-03-18T02:05:07;97529.06;;;7.45;78.06
72525;BME280;60547;48.502;8.996;2023-03-18T02:07:36;97533.38;;;7.46;78.29
72525;BME280;60547;48.502;8.996;2023-03-18T02:10:08;97519.31;;;7.37;78.46
72525;BME280;60547;48.502;8.996;2023-03-18T02:12:44;97531.16;;;7.37;78.02
72525;BME280;60547;48.502;8.996;2023-03-18T02:15:15;97517.81;;;7.32;78.71
72525;BME280;60547;48.502;8.996;2023-03-18T02:17:45;97521.09;;;7.27;78.95
72525;BME280;60547;48.502;8.996;2023-03-18T02:28:51;97540.47;;;7.27;78.88
72525;BME280;60547;48.502;8.996;2023-03-18T02:31:19;97543.44;;;7.36;78.76
72525;BME280;60547;48.502;8.996;2023-03-18T02:33:45;97532.50;;;7.29;78.82
72525;BME280;60547;48.502;8.996;2023-03-18T02:36:17;97533.13;;;7.17;79.25
72525;BME280;60547;48.502;8.996;2023-03-18T02:38:44;97529.53;;;7.20;78.64
72525;BME280;60547;48.502;8.996;2023-03-18T02:41:19;97536.69;;;7.18;78.85
72525;BME280;60547;48.502;8.996;2023-03-18T02:43:45;97551.94;;;7.26;78.50
72525;BME280;60547;48.502;8.996;2023-03-18T02:48:40;97535.53;;;7.15;79.37
72525;BME280;60547;48.502;8.996;2023-03-18T02:51:08;97532.84;;;7.11;79.55
72525;BME280;60547;48.502;8.996;2023-03-18T02:53:35;97527.06;;;7.02;79.69
72525;BME280;60547;48.502;8.996;2023-03-18T02:56:01;97535.25;;;7.09;79.24
72525;BME280;60547;48.502;8.996;2023-03-18T02:58:27;97535.31;;;7.06;79.87
72525;BME280;60547;48.502;8.996;2023-03-18T03:00:53;97525.56;;;6.98;79.30
72525;BME280;60547;48.502;8.996;2023-03-18T03:03:19;97533.03;;;7.01;79.50
72525;BME280;60547;48.502;8.996;2023-03-18T03:05:45;97535.44;;;6.99;79.70
72525;BME280;60547;48.502;8.996;2023-03-18T03:08:12;97549.44;;;6.88;80.10
72525;BME280;60547;48.502;8.996;2023-03-18T03:10:38;97546.06;;;7.00;79.48
72525;BME280;60547;48.502;8.996;2023-03-18T03:13:05;97537.06;;;6.96;79.72
72525;BME280;60547;48.502;8.996;2023-03-18T03:15:32;97546.19;;;6.93;79.80
72525;BME280;60547;48.502;8.996;2023-03-18T03:17:57;97538.75;;;6.90;79.22
72525;BME280;60547;48.502;8.996;2023-03-18T03:20:23;97538.06;;;6.83;79.26
72525;BME280;60547;48.502;8.996;2023-03-18T03:22:49;97545.53;;;6.86;79.18
72525;BME280;60547;48.502;8.996;2023-03-18T03:25:15;97547.88;;;6.87;79.22
72525;BME280;60547;48.502;8.996;2023-03-18T03:27:41;97551.06;;;6.86;79.03
72525;BME280;60547;48.502;8.996;2023-03-18T03:30:10;97558.16;;;6.87;79.22
72525;BME280;60547;48.502;8.996;2023-03-18T03:32:36;97556.34;;;6.76;79.09
72525;BME280;60547;48.502;8.996;2023-03-18T03:35:01;97557.19;;;6.73;79.98
72525;BME280;60547;48.502;8.996;2023-03-18T03:37:27;97556.09;;;6.67;80.10
72525;BME280;60547;48.502;8.996;2023-03-18T03:39:54;97556.16;;;6.64;79.87
72525;BME280;60547;48.502;8.996;2023-03-18T03:42:20;97554.53;;;6.66;80.30
72525;BME280;60547;48.502;8.996;2023-03-18T03:44:45;97573.09;;;6.66;80.06
72525;BME280;60547;48.502;8.996;2023-03-18T03:47:11;97565.75;;;6.56;80.00
72525;BME280;60547;48.502;8.996;2023-03-18T03:49:37;97561.91;;;6.50;80.11
72525;BME280;60547;48.502;8.996;2023-03-18T03:52:03;97570.56;;;6.52;80.47
72525;BME280;60547;48.502;8.996;2023-03-18T03:54:29;97559.66;;;6.41;80.58
72525;BME280;60547;48.502;8.996;2023-03-18T03:56:54;97560.41;;;6.45;80.56
72525;BME280;60547;48.502;8.996;2023-03-18T03:59:20;97569.88;;;6.44;80.50
72525;BME280;60547;48.502;8.996;2023-03-18T04:01:45;97559.34;;;6.35;80.82
72525;BME280;60547;48.502;8.996;2023-03-18T04:04:11;97551.94;;;6.29;80.65
72525;BME280;60547;48.502;8.996;2023-03-18T04:06:37;97557.09;;;6.27;81.32
72525;BME280;60547;48.502;8.996;2023-03-18T04:09:03;97562.53;;;6.34;80.26
72525;BME280;60547;48.502;8.996;2023-03-18T04:11:29;97561.13;;;6.22;80.78
72525;BME280;60547;48.502;8.996;2023-03-18T04:13:55;97561.59;;;6.17;81.38
72525;BME280;60547;48.502;8.996;2023-03-18T04:16:21;97563.94;;;6.19;81.01
72525;BME280;60547;48.502;8.996;2023-03-18T04:18:47;97572.63;;;6.17;81.61
72525;BME280;60547;48.502;8.996;2023-03-18T04:21:13;97562.00;;;6.15;81.03
72525;BME280;60547;48.502;8.996;2023-03-18T04:23:39;97564.03;;;6.11;81.48
72525;BME280;60547;48.502;8.996;2023-03-18T04:26:05;97562.50;;;6.07;81.23
72525;BME280;60547;48.502;8.996;2023-03-18T04:28:31;97561.00;;;6.02;81.56
72525;BME280;60547;48.502;8.996;2023-03-18T04:30:57;97563.03;;;5.98;81.61
72525;BME280;60547;48.502;8.996;2023-03-18T04:33:23;97569.00;;;5.93;81.77
72525;BME280;60547;48.502;8.996;2023-03-18T04:35:49;97573.38;;;5.91;81.32
72525;BME280;60547;48.502;8.996;2023-03-18T04:38:14;97569.88;;;5.83;82.20
72525;BME280;60547;48.502;8.996;2023-03-18T04:40:40;97575.41;;;5.83;82.01
72525;BME280;60547;48.502;8.996;2023-03-18T04:43:07;97560.50;;;5.77;82.12
72525;BME280;60547;48.502;8.996;2023-03-18T04:45:34;97576.22;;;5.80;82.20
72525;BME280;60547;48.502;8.996;2023-03-18T04:48:00;97577.75;;;5.84;81.77
72525;BME280;60547;48.502;8.996;2023-03-18T04:50:26;97580.19;;;5.79;81.63
72525;BME280;60547;48.502;8.996;2023-03-18T04:52:53;97573.97;;;5.71;81.70
72525;BME280;60547;48.502;8.996;2023-03-18T04:55:19;97575.94;;;5.71;81.63
72525;BME280;60547;48.502;8.996;2023-03-18T04:57:46;97576.72;;;5.71;81.40
72525;BME280;60547;48.502;8.996;2023-03-18T05:00:15;97581.84;;;5.73;81.59
72525;BME280;60547;48.502;8.996;2023-03-18T05:02:42;97575.66;;;5.62;81.81
72525;BME280;60547;48.502;8.996;2023-03-18T05:05:08;97569.47;;;5.50;81.89
72525;BME280;60547;48.502;8.996;2023-03-18T05:07:35;97572.97;;;5.55;82.06
72525;BME280;60547;48.502;8.996;2023-03-18T05:10:05;97574.25;;;5.46;81.91
72525;BME280;60547;48.502;8.996;2023-03-18T05:12:34;97579.00;;;5.46;82.27
72525;BME280;60547;48.502;8.996;2023-03-18T05:15:01;97564.53;;;5.35;82.71
72525;BME280;60547;48.502;8.996;2023-03-18T05:17:27;97582.97;;;5.41;82.62
72525;BME280;60547;48.502;8.996;2023-03-18T05:19:53;97582.22;;;5.37;82.51
72525;BME280;60547;48.502;8.996;2023-03-18T05:22:19;97588.56;;;5.34;82.95
72525;BME280;60547;48.502;8.996;2023-03-18T05:24:46;97586.25;;;5.29;83.37
72525;BME280;60547;48.502;8.996;2023-03-18T05:27:14;97581.56;;;5.26;83.40
72525;BME280;60547;48.502;8.996;2023-03-18T05:29:41;97583.88;;;5.31;83.26
72525;BME280;60547;48.502;8.996;2023-03-18T05:32:07;97571.31;;;5.27;82.84
72525;BME280;60547;48.502;8.996;2023-03-18T05:34:35;97584.69;;;5.28;82.49
72525;BME280;60547;48.502;8.996;2023-03-18T05:37:03;97586.34;;;5.18;82.89
72525;BME280;60547;48.502;8.996;2023-03-18T05:39:32;97584.38;;;5.19;82.98
72525;BME280;60547;48.502;8.996;2023-03-18T05:41:59;97584.44;;;5.12;82.65
72525;BME280;60547;48.502;8.996;2023-03-18T05:44:25;97586.88;;;5.06;82.67
72525;BME280;60547;48.502;8.996;2023-03-18T05:46:51;97593.47;;;5.16;82.83
72525;BME280;60547;48.502;8.996;2023-03-18T05:49:18;97585.34;;;5.02;82.64
72525;BME280;60547;48.502;8.996;2023-03-18T05:51:44;97595.19;;;4.99;82.82
72525;BME280;60547;48.502;8.996;2023-03-18T05:54:11;97597.63;;;4.90;83.09
72525;BME280;60547;48.502;8.996;2023-03-18T05:56:37;97585.88;;;4.82;83.82
72525;BME280;60547;48.502;8.996;2023-03-18T05:59:02;97592.19;;;4.83;84.16
72525;BME280;60547;48.502;8.996;2023-03-18T06:01:31;97573.38;;;4.71;84.02
72525;BME280;60547;48.502;8.996;2023-03-18T06:03:58;97598.91;;;4.78;84.06
72525;BME280;60547;48.502;8.996;2023-03-18T06:06:25;97589.06;;;4.77;83.51
72525;BME280;60547;48.502;8.996;2023-03-18T06:08:51;97585.88;;;4.82;83.98
72525;BME280;60547;48.502;8.996;2023-03-18T06:11:17;97594.50;;;4.88;83.83
72525;BME280;60547;48.502;8.996;2023-03-18T06:13:43;97596.84;;;4.90;83.31
72525;BME280;60547;48.502;8.996;2023-03-18T06:16:10;97605.88;;;4.94;83.35
72525;BME280;60547;48.502;8.996;2023-03-18T06:18:36;97611.38;;;4.97;83.37
72525;BME280;60547;48.502;8.996;2023-03-18T06:21:02;97605.53;;;4.88;83.48
72525;BME280;60547;48.502;8.996;2023-03-18T06:23:28;97607.13;;;4.85;82.85
72525;BME280;60547;48.502;8.996;2023-03-18T06:25:54;97602.00;;;4.84;83.42
72525;BME280;60547;48.502;8.996;2023-03-18T06:28:19;97609.38;;;4.98;82.81
72525;BME280;60547;48.502;8.996;2023-03-18T06:30:45;97623.56;;;5.00;82.52
72525;BME280;60547;48.502;8.996;2023-03-18T06:33:11;97624.38;;;4.97;82.63
72525;BME280;60547;48.502;8.996;2023-03-18T06:35:37;97625.13;;;5.01;82.25
72525;BME280;60547;48.502;8.996;2023-03-18T06:38:03;97624.72;;;5.02;82.19
72525;BME280;60547;48.502;8.996;2023-03-18T06:40:28;97614.91;;;4.98;82.66
72525;BME280;60547;48.502;8.996;2023-03-18T06:42:54;97615.56;;;5.12;82.62
72525;BME280;60547;48.502;8.996;2023-03-18T06:45:19;97622.69;;;5.10;82.36
72525;BME280;60547;48.502;8.996;2023-03-18T06:47:46;97621.06;;;5.16;82.66
72525;BME280;60547;48.502;8.996;2023-03-18T06:50:14;97624.97;;;5.18;82.54
72525;BME280;60547;48.502;8.996;2023-03-18T06:52:40;97606.84;;;5.17;82.79
72525;BME280;60547;48.502;8.996;2023-03-18T06:55:07;97621.66;;;5.34;82.81
72525;BME280;60547;48.502;8.996;2023-03-18T06:57:34;97621.50;;;5.52;81.74
72525;BME280;60547;48.502;8.996;2023-03-18T07:00:00;97629.13;;;5.75;80.24
72525;BME280;60547;48.502;8.996;2023-03-18T07:02:25;97621.06;;;5.95;79.37
72525;BME280;60547;48.502;8.996;2023-03-18T07:04:52;97615.34;;;6.09;78.50
72525;BME280;60547;48.502;8.996;2023-03-18T07:07:19;97612.00;;;6.25;78.90
72525;BME280;60547;48.502;8.996;2023-03-18T07:09:45;97619.81;;;6.30;78.40
72525;BME280;60547;48.502;8.996;2023-03-18T07:12:13;97621.94;;;6.49;77.93
72525;BME280;60547;48.502;8.996;2023-03-18T07:14:40;97621.66;;;6.67;77.25
72525;BME280;60547;48.502;8.996;2023-03-18T07:17:06;97628.38;;;6.93;76.05
72525;BME280;60547;48.502;8.996;2023-03-18T07:19:32;97615.66;;;6.99;75.15
72525;BME280;60547;48.502;8.996;2023-03-18T07:21:58;97624.75;;;7.23;74.65
72525;BME280;60547;48.502;8.996;2023-03-18T07:24:25;97622.75;;;7.47;73.81
72525;BME280;60547;48.502;8.996;2023-03-18T07:26:50;97626.94;;;7.55;72.86
72525;BME280;60547;48.502;8.996;2023-03-18T07:29:17;97622.66;;;7.73;72.22
72525;BME280;60547;48.502;8.996;2023-03-18T07:31:43;97624.34;;;7.87;71.74
72525;BME280;60547;48.502;8.996;2023-03-18T07:34:09;97618.47;;;8.05;71.01
72525;BME280;60547;48.502;8.996;2023-03-18T07:36:34;97629.75;;;8.14;70.83
72525;BME280;60547;48.502;8.996;2023-03-18T07:39:02;97633.16;;;8.22;69.85
72525;BME280;60547;48.502;8.996;2023-03-18T07:41:28;97624.16;;;8.18;70.19
72525;BME280;60547;48.502;8.996;2023-03-18T07:43:53;97628.84;;;8.40;69.69
72525;BME280;60547;48.502;8.996;2023-03-18T07:46:20;97637.47;;;8.62;68.22
72525;BME280;60547;48.502;8.996;2023-03-18T07:48:46;97641.31;;;8.68;68.51
72525;BME280;60547;48.502;8.996;2023-03-18T07:51:12;97627.19;;;8.79;68.30
72525;BME280;60547;48.502;8.996;2023-03-18T07:53:39;97630.94;;;8.89;68.21
72525;BME280;60547;48.502;8.996;2023-03-18T07:56:05;97628.88;;;9.09;68.49
72525;BME280;60547;48.502;8.996;2023-03-18T07:58:32;97629.81;;;9.35;68.20
72525;BME280;60547;48.502;8.996;2023-03-18T08:00:58;97628.31;;;9.47;67.76
72525;BME280;60547;48.502;8.996;2023-03-18T08:03:24;97627.25;;;9.73;67.22
72525;BME280;60547;48.502;8.996;2023-03-18T08:05:50;97628.56;;;9.97;65.95
72525;BME280;60547;48.502;8.996;2023-03-18T08:08:17;97621.63;;;10.18;64.58
72525;BME280;60547;48.502;8.996;2023-03-18T08:10:43;97617.69;;;10.32;64.01
72525;BME280;60547;48.502;8.996;2023-03-18T08:13:08;97619.59;;;10.48;63.22
72525;BME280;60547;48.502;8.996;2023-03-18T08:15:34;97624.06;;;10.71;62.88
72525;BME280;60547;48.502;8.996;2023-03-18T08:17:59;97627.41;;;10.53;62.70
72525;BME280;60547;48.502;8.996;2023-03-18T08:20:25;97626.41;;;10.85;62.27
72525;BME280;60547;48.502;8.996;2023-03-18T08:22:51;97622.41;;;11.11;62.86
72525;BME280;60547;48.502;8.996;2023-03-18T08:25:17;97621.72;;;11.20;61.12
72525;BME280;60547;48.502;8.996;2023-03-18T08:27:42;97628.03;;;11.46;60.74
72525;BME280;60547;48.502;8.996;2023-03-18T08:30:09;97629.59;;;11.34;60.87
72525;BME280;60547;48.502;8.996;2023-03-18T08:32:35;97610.19;;;11.43;60.54
72525;BME280;60547;48.502;8.996;2023-03-18T08:35:01;97612.53;;;11.45;60.70
72525;BME280;60547;48.502;8.996;2023-03-18T08:37:27;97616.06;;;11.58;60.19
72525;BME280;60547;48.502;8.996;2023-03-18T08:39:53;97618.28;;;11.63;59.69
72525;BME280;60547;48.502;8.996;2023-03-18T08:42:19;97615.81;;;11.65;58.98
72525;BME280;60547;48.502;8.996;2023-03-18T08:44:45;97613.69;;;11.69;59.16
72525;BME280;60547;48.502;8.996;2023-03-18T08:47:10;97618.03;;;11.70;59.38
72525;BME280;60547;48.502;8.996;2023-03-18T08:49:36;97616.22;;;11.89;59.61
72525;BME280;60547;48.502;8.996;2023-03-18T08:52:02;97619.28;;;12.04;59.11
72525;BME280;60547;48.502;8.996;2023-03-18T08:54:27;97618.09;;;12.36;59.75
72525;BME280;60547;48.502;8.996;2023-03-18T08:56:53;97604.34;;;12.41;58.20
72525;BME280;60547;48.502;8.996;2023-03-18T08:59:20;97610.66;;;12.64;57.19
72525;BME280;60547;48.502;8.996;2023-03-18T09:01:45;97600.19;;;12.77;54.97
72525;BME280;60547;48.502;8.996;2023-03-18T09:04:12;97598.06;;;12.90;56.33
72525;BME280;60547;48.502;8.996;2023-03-18T09:06:39;97592.81;;;13.01;55.93
72525;BME280;60547;48.502;8.996;2023-03-18T09:09:06;97599.66;;;13.00;56.16
72525;BME280;60547;48.502;8.996;2023-03-18T09:11:32;97584.09;;;13.30;51.93
72525;BME280;60547;48.502;8.996;2023-03-18T09:13:58;97596.06;;;13.49;51.02
72525;BME280;60547;48.502;8.996;2023-03-18T09:16:23;97585.53;;;13.62;49.94
72525;BME280;60547;48.502;8.996;2023-03-18T09:18:49;97592.38;;;13.70;48.81
72525;BME280;60547;48.502;8.996;2023-03-18T09:21:15;97576.22;;;13.93;49.62
72525;BME280;60547;48.502;8.996;2023-03-18T09:23:41;97591.59;;;13.97;48.50
72525;BME280;60547;48.502;8.996;2023-03-18T09:26:07;97573.56;;;14.07;48.98
72525;BME280;60547;48.502;8.996;2023-03-18T09:28:33;97577.69;;;14.39;49.40
72525;BME280;60547;48.502;8.996;2023-03-18T09:31:01;97581.44;;;14.45;47.51
72525;BME280;60547;48.502;8.996;2023-03-18T09:33:28;97584.81;;;14.59;46.66
72525;BME280;60547;48.502;8.996;2023-03-18T09:35:54;97569.25;;;14.67;45.71
72525;BME280;60547;48.502;8.996;2023-03-18T09:38:20;97579.44;;;14.88;45.29
72525;BME280;60547;48.502;8.996;2023-03-18T09:46:44;97568.53;;;14.90;44.08
72525;BME280;60547;48.502;8.996;2023-03-18T09:49:28;97568.13;;;15.06;44.19
72525;BME280;60547;48.502;8.996;2023-03-18T09:56:56;97571.25;;;15.56;43.26
72525;BME280;60547;48.502;8.996;2023-03-18T09:59:37;97552.47;;;15.71;41.95
72525;BME280;60547;48.502;8.996;2023-03-18T10:02:16;97560.16;;;15.86;42.37
72525;BME280;60547;48.502;8.996;2023-03-18T10:04:54;97547.66;;;15.87;41.60
72525;BME280;60547;48.502;8.996;2023-03-18T10:07:24;97554.75;;;15.97;42.02
72525;BME280;60547;48.502;8.996;2023-03-18T10:10:18;97554.97;;;16.08;39.75
72525;BME280;60547;48.502;8.996;2023-03-18T10:12:43;97549.16;;;16.26;40.68
72525;BME280;60547;48.502;8.996;2023-03-18T10:15:41;97549.16;;;16.26;38.92
72525;BME280;60547;48.502;8.996;2023-03-18T10:18:13;97550.13;;;16.23;40.16
72525;BME280;60547;48.502;8.996;2023-03-18T10:37:41;97536.22;;;17.28;37.33
72525;BME280;60547;48.502;8.996;2023-03-18T10:40:12;97540.03;;;17.46;35.67
72525;BME280;60547;48.502;8.996;2023-03-18T10:42:40;97528.84;;;17.51;36.17
72525;BME280;60547;48.502;8.996;2023-03-18T10:47:46;97538.28;;;17.48;34.33
72525;BME280;60547;48.502;8.996;2023-03-18T10:50:28;97534.28;;;17.75;33.74
72525;BME280;60547;48.502;8.996;2023-03-18T10:53:01;97518.28;;;17.87;32.85
72525;BME280;60547;48.502;8.996;2023-03-18T10:55:33;97523.53;;;18.25;33.79
72525;BME280;60547;48.502;8.996;2023-03-18T10:58:14;97522.78;;;18.56;33.98
72525;BME280;60547;48.502;8.996;2023-03-18T11:00:40;97512.25;;;18.83;32.78
72525;BME280;60547;48.502;8.996;2023-03-18T11:03:19;97502.69;;;19.12;31.45
72525;BME280;60547;48.502;8.996;2023-03-18T11:05:48;97511.69;;;19.16;32.12
72525;BME280;60547;48.502;8.996;2023-03-18T11:08:36;97507.88;;;19.19;30.59
72525;BME280;60547;48.502;8.996;2023-03-18T11:11:27;97510.16;;;19.68;30.97
72525;BME280;60547;48.502;8.996;2023-03-18T11:13:59;97506.31;;;19.66;30.85
72525;BME280;60547;48.502;8.996;2023-03-18T11:24:35;97487.47;;;20.50;30.53
72525;BME280;60547;48.502;8.996;2023-03-18T11:29:44;97485.38;;;20.28;26.47
72525;BME280;60547;48.502;8.996;2023-03-18T11:32:28;97480.50;;;20.29;28.14
72525;BME280;60547;48.502;8.996;2023-03-18T11:35:04;97486.78;;;19.57;29.86
72525;BME280;60547;48.502;8.996;2023-03-18T11:42:41;97475.66;;;20.52;26.87
72525;BME280;60547;48.502;8.996;2023-03-18T11:45:21;97481.53;;;20.31;26.99
72525;BME280;60547;48.502;8.996;2023-03-18T11:47:51;97472.06;;;20.51;26.10
72525;BME280;60547;48.502;8.996;2023-03-18T11:50:19;97469.47;;;20.81;26.33
72525;BME280;60547;48.502;8.996;2023-03-18T11:53:03;97475.38;;;20.72;25.71
72525;BME280;60547;48.502;8.996;2023-03-18T11:55:42;97462.03;;;20.45;27.63
72525;BME280;60547;48.502;8.996;2023-03-18T11:58:37;97464.00;;;21.11;26.63
72525;BME280;60547;48.502;8.996;2023-03-18T12:06:40;97447.69;;;21.92;26.54
72525;BME280;60547;48.502;8.996;2023-03-18T12:09:29;97442.94;;;22.11;25.55
72525;BME280;60547;48.502;8.996;2023-03-18T12:14:39;97433.88;;;22.18;25.65
72525;BME280;60547;48.502;8.996;2023-03-18T12:17:24;97421.47;;;22.21;24.48
72525;BME280;60547;48.502;8.996;2023-03-18T12:20:11;97428.50;;;22.45;25.73
72525;BME280;60547;48.502;8.996;2023-03-18T12:22:55;97429.75;;;22.49;24.88
72525;BME280;60547;48.502;8.996;2023-03-18T12:31:49;97419.84;;;22.32;25.67
72525;BME280;60547;48.502;8.996;2023-03-18T12:37:12;97418.56;;;22.33;24.24
72525;BME280;60547;48.502;8.996;2023-03-18T12:45:20;97412.44;;;22.53;24.85
72525;BME280;60547;48.502;8.996;2023-03-18T12:47:52;97404.00;;;22.47;24.46
72525;BME280;60547;48.502;8.996;2023-03-18T12:50:30;97402.03;;;22.61;24.61
72525;BME280;60547;48.502;8.996;2023-03-18T12:53:18;97400.16;;;22.69;23.97
72525;BME280;60547;48.502;8.996;2023-03-18T12:55:51;97399.41;;;22.69;24.19
72525;BME280;60547;48.502;8.996;2023-03-18T12:58:28;97397.41;;;21.98;25.14
72525;BME280;60547;48.502;8.996;2023-03-18T13:01:04;97397.50;;;21.46;24.14
72525;BME280;60547;48.502;8.996;2023-03-18T13:03:38;97406.88;;;21.71;25.17
72525;BME280;60547;48.502;8.996;2023-03-18T13:14:12;97390.06;;;21.37;26.48
72525;BME280;60547;48.502;8.996;2023-03-18T13:16:38;97392.53;;;21.57;26.40
72525;BME280;60547;48.502;8.996;2023-03-18T13:19:07;97389.81;;;21.35;26.22
72525;BME280;60547;48.502;8.996;2023-03-18T13:21:38;97383.53;;;20.95;26.02
72525;BME280;60547;48.502;8.996;2023-03-18T13:24:39;97389.03;;;20.54;26.21
72525;BME280;60547;48.502;8.996;2023-03-18T13:30:01;97393.16;;;21.39;26.13
72525;BME280;60547;48.502;8.996;2023-03-18T13:32:34;97387.06;;;21.65;25.36
72525;BME280;60547;48.502;8.996;2023-03-18T13:43:03;97376.22;;;22.10;25.88
72525;BME280;60547;48.502;8.996;2023-03-18T13:45:37;97370.09;;;22.01;26.38
72525;BME280;60547;48.502;8.996;2023-03-18T13:48:31;97373.13;;;22.08;25.94
72525;BME280;60547;48.502;8.996;2023-03-18T13:50:58;97374.47;;;22.02;26.42
72525;BME280;60547;48.502;8.996;2023-03-18T13:53:40;97377.97;;;21.78;25.62
72525;BME280;60547;48.502;8.996;2023-03-18T13:58:52;97374.22;;;21.12;27.69
72525;BME280;60547;48.502;8.996;2023-03-18T14:01:29;97371.91;;;21.10;27.05
72525;BME280;60547;48.502;8.996;2023-03-18T14:11:53;97367.63;;;20.81;27.54
72525;BME280;60547;48.502;8.996;2023-03-18T14:14:40;97364.13;;;20.42;28.56
72525;BME280;60547;48.502;8.996;2023-03-18T14:17:21;97364.38;;;20.16;28.54
72525;BME280;60547;48.502;8.996;2023-03-18T14:19:52;97365.16;;;19.83;29.60
72525;BME280;60547;48.502;8.996;2023-03-18T14:22:27;97363.63;;;19.71;29.69
72525;BME280;60547;48.502;8.996;2023-03-18T14:25:37;97363.88;;;19.67;29.52
72525;BME280;60547;48.502;8.996;2023-03-18T14:36:08;97358.03;;;19.06;30.36
72525;BME280;60547;48.502;8.996;2023-03-18T14:38:59;97356.19;;;18.91;30.47
72525;BME280;60547;48.502;8.996;2023-03-18T14:41:29;97353.34;;;18.86;30.63
72525;BME280;60547;48.502;8.996;2023-03-18T14:44:21;97349.97;;;18.76;31.50
72525;BME280;60547;48.502;8.996;2023-03-18T14:46:50;97356.25;;;19.02;31.14
72525;BME280;60547;48.502;8.996;2023-03-18T14:52:29;97357.69;;;18.81;31.37
72525;BME280;60547;48.502;8.996;2023-03-18T14:55:06;97328.06;;;18.54;31.57
72525;BME280;60547;48.502;8.996;2023-03-18T14:57:33;97338.81;;;18.56;31.51
72525;BME280;60547;48.502;8.996;2023-03-18T14:59:59;97348.13;;;18.67;31.45
72525;BME280;60547;48.502;8.996;2023-03-18T15:02:27;97331.31;;;18.42;30.37
72525;BME280;60547;48.502;8.996;2023-03-18T15:04:57;97349.28;;;18.50;30.42
72525;BME280;60547;48.502;8.996;2023-03-18T15:07:31;97350.09;;;18.56;31.20
72525;BME280;60547;48.502;8.996;2023-03-18T15:10:01;97344.03;;;18.63;32.01
72525;BME280;60547;48.502;8.996;2023-03-18T15:12:28;97347.41;;;18.73;32.09
72525;BME280;60547;48.502;8.996;2023-03-18T15:14:54;97341.03;;;18.83;31.22
72525;BME280;60547;48.502;8.996;2023-03-18T15:17:23;97339.00;;;18.89;31.13
72525;BME280;60547;48.502;8.996;2023-03-18T15:19:49;97335.50;;;19.11;31.06